createdAt,value
2018-08-28T00:01:24.342Z,66.20
2018-08-28T00:03:54.802Z,66.20
2018-08-28T00:06:27.045Z,65.70
2018-08-28T00:08:56.544Z,65.70
2018-08-28T00:11:25.807Z,65.80
2018-08-28T00:13:55.307Z,65.60
2018-08-28T00:16:24.735Z,65.40
2018-08-28T00:18:54.898Z,65.30
2018-08-28T00:21:24.297Z,65.70
2018-08-28T00:23:53.829Z,67.60
2018-08-28T00:26:23.217Z,67.50
2018-08-28T00:28:52.800Z,66.50
2018-08-28T00:31:22.239Z,66.50
2018-08-28T00:33:52.932Z,66.30
2018-08-28T00:36:22.451Z,66.20
2018-08-28T00:38:51.857Z,66.60
2018-08-28T00:41:21.699Z,66.00
2018-08-28T00:43:51.169Z,66.30
2018-08-28T00:46:20.754Z,65.90
2018-08-28T00:48:50.188Z,65.60
2018-08-28T00:51:19.787Z,65.90
2018-08-28T00:53:49.131Z,66.70
2018-08-28T00:56:18.912Z,66.50
2018-08-28T00:58:48.601Z,66.30
2018-08-28T01:01:18.335Z,66.30
2018-08-28T01:03:47.838Z,66.00
2018-08-28T01:06:18.165Z,66.40
2018-08-28T01:08:47.748Z,68.60
2018-08-28T01:11:20.132Z,67.50
2018-08-28T01:13:50.312Z,67.30
2018-08-28T01:16:20.717Z,69.30
2018-08-28T01:18:50.425Z,70.80
2018-08-28T01:21:19.790Z,72.00
2018-08-28T01:23:49.285Z,73.30
2018-08-28T01:26:18.814Z,74.50
2018-08-28T01:28:48.309Z,76.20
2018-08-28T01:31:18.000Z,75.00
2018-08-28T01:33:47.502Z,77.40
2018-08-28T01:36:17.122Z,78.00
2018-08-28T01:38:46.952Z,79.20
2018-08-28T01:41:16.454Z,79.20
2018-08-28T01:43:45.891Z,79.90
2018-08-28T01:46:15.387Z,80.50
2018-08-28T01:48:45.420Z,82.40
2018-08-28T01:51:15.013Z,78.70
2018-08-28T01:53:45.201Z,80.80
2018-08-28T01:56:14.634Z,81.90
2018-08-28T01:58:44.276Z,81.20
2018-08-28T02:01:14.647Z,81.00
2018-08-28T02:03:44.248Z,82.20
2018-08-28T02:06:13.746Z,80.70
2018-08-28T02:08:43.139Z,81.90
2018-08-28T02:11:12.274Z,82.50
2018-08-28T02:13:43.752Z,82.80
2018-08-28T02:16:13.150Z,83.60
2018-08-28T02:18:42.565Z,82.80
2018-08-28T02:21:12.392Z,80.50
2018-08-28T02:23:42.067Z,78.40
2018-08-28T02:26:12.294Z,79.50
2018-08-28T02:28:42.112Z,76.50
2018-08-28T02:31:12.752Z,75.60
2018-08-28T02:33:42.406Z,75.80
2018-08-28T02:36:11.920Z,78.90
2018-08-28T02:38:41.364Z,77.90
2018-08-28T02:41:10.747Z,79.60
2018-08-28T02:43:40.336Z,80.20
2018-08-28T02:46:09.868Z,82.20
2018-08-28T02:48:39.138Z,82.70
2018-08-28T02:51:08.692Z,82.10
2018-08-28T02:53:38.119Z,82.00
2018-08-28T02:56:07.688Z,82.20
2018-08-28T02:58:37.507Z,83.90
2018-08-28T03:01:06.855Z,84.30
2018-08-28T03:03:37.473Z,85.10
2018-08-28T03:06:07.105Z,85.60
2018-08-28T03:08:36.430Z,85.80
2018-08-28T03:11:06.662Z,87.00
2018-08-28T03:13:36.739Z,87.40
2018-08-28T03:16:06.947Z,88.10
2018-08-28T03:18:36.277Z,87.60
2018-08-28T03:21:06.525Z,87.90
2018-08-28T03:23:36.331Z,87.30
2018-08-28T03:26:06.659Z,87.10
2018-08-28T03:28:37.440Z,85.50
2018-08-28T03:31:07.002Z,84.90
2018-08-28T03:33:37.118Z,85.50
2018-08-28T03:36:06.716Z,86.00
2018-08-28T03:38:36.401Z,85.20
2018-08-28T03:41:06.465Z,86.50
2018-08-28T03:43:36.476Z,86.40
2018-08-28T03:46:06.996Z,87.60
2018-08-28T03:48:37.666Z,87.60
2018-08-28T03:51:07.750Z,84.90
2018-08-28T03:53:37.251Z,82.60
2018-08-28T03:56:07.277Z,81.00
2018-08-28T03:58:36.878Z,83.00
2018-08-28T04:01:07.005Z,84.00
2018-08-28T04:03:36.356Z,80.40
2018-08-28T04:06:05.913Z,80.70
2018-08-28T04:08:38.625Z,78.10
2018-08-28T04:11:08.227Z,78.50
2018-08-28T04:13:39.593Z,77.20
2018-08-28T04:16:09.329Z,76.30
2018-08-28T04:18:38.963Z,75.30
2018-08-28T04:21:09.495Z,75.00
2018-08-28T04:23:39.307Z,74.50
2018-08-28T04:26:08.927Z,73.90
2018-08-28T04:28:38.491Z,74.20
2018-08-28T04:31:08.952Z,73.40
2018-08-28T04:33:38.758Z,77.70
2018-08-28T04:36:09.241Z,77.50
2018-08-28T04:38:39.215Z,79.10
2018-08-28T04:41:08.877Z,76.50
2018-08-28T04:43:39.571Z,78.50
2018-08-28T04:46:09.195Z,80.50
2018-08-28T04:48:40.238Z,82.50
2018-08-28T04:51:09.827Z,84.00
2018-08-28T04:53:39.743Z,84.60
2018-08-28T04:56:09.445Z,86.10
2018-08-28T04:58:38.956Z,86.20
2018-08-28T05:01:08.453Z,86.10
2018-08-28T05:03:37.856Z,85.30
2018-08-28T05:06:07.497Z,85.20
2018-08-28T05:08:37.714Z,85.30
2018-08-28T05:11:07.189Z,85.00
2018-08-28T05:13:36.681Z,85.50
2018-08-28T05:16:06.117Z,86.10
2018-08-28T05:18:36.235Z,85.40
2018-08-28T05:21:19.631Z,85.90
2018-08-28T05:23:50.112Z,84.30
2018-08-28T05:26:24.913Z,86.00
2018-08-28T05:29:00.420Z,87.10
2018-08-28T05:31:32.857Z,87.60
2018-08-28T05:34:02.424Z,84.90
2018-08-28T05:36:31.770Z,84.80
2018-08-28T05:39:01.165Z,85.70
2018-08-28T05:41:30.675Z,85.60
2018-08-28T05:44:00.021Z,85.80
2018-08-28T05:46:30.094Z,85.10
2018-08-28T05:48:59.499Z,85.80
2018-08-28T05:51:31.525Z,85.60
2018-08-28T05:54:01.867Z,85.60
2018-08-28T05:56:31.703Z,84.00
2018-08-28T05:59:01.345Z,84.60
2018-08-28T06:01:30.466Z,82.50
2018-08-28T06:04:01.034Z,83.40
2018-08-28T06:06:30.531Z,83.50
2018-08-28T06:08:59.955Z,83.20
2018-08-28T06:11:29.168Z,82.30
2018-08-28T06:13:58.770Z,82.10
2018-08-28T06:16:28.352Z,81.50
2018-08-28T06:19:02.662Z,81.10
2018-08-28T06:21:32.147Z,81.00
2018-08-28T06:24:01.897Z,80.10
2018-08-28T06:26:38.568Z,79.00
2018-08-28T06:29:07.854Z,78.60
2018-08-28T06:31:40.666Z,78.70
2018-08-28T06:34:11.480Z,78.60
2018-08-28T06:36:41.112Z,78.40
2018-08-28T06:39:11.724Z,78.40
2018-08-28T06:41:41.246Z,77.10
2018-08-28T06:44:11.219Z,77.40
2018-08-28T06:46:40.540Z,78.10
2018-08-28T06:49:09.821Z,77.80
2018-08-28T06:51:39.439Z,76.80
2018-08-28T06:54:09.103Z,77.20
2018-08-28T06:56:38.904Z,77.60
2018-08-28T06:59:08.357Z,77.70
2018-08-28T07:01:37.891Z,77.40
2018-08-28T07:04:08.623Z,77.30
2018-08-28T07:06:38.508Z,77.20
2018-08-28T07:09:08.821Z,77.70
2018-08-28T07:11:38.045Z,76.80
2018-08-28T07:14:07.556Z,76.20
2018-08-28T07:16:37.545Z,76.40
2018-08-28T07:19:07.045Z,76.50
2018-08-28T07:21:37.635Z,76.30
2018-08-28T07:24:07.208Z,76.60
2018-08-28T07:26:36.619Z,76.70
2018-08-28T07:29:06.244Z,77.00
2018-08-28T07:31:35.784Z,77.00
2018-08-28T07:34:05.608Z,75.40
2018-08-28T07:36:35.876Z,74.30
2018-08-28T07:39:08.511Z,72.70
2018-08-28T07:41:38.012Z,71.90
2018-08-28T07:44:07.588Z,70.90
2018-08-28T07:46:36.850Z,69.50
2018-08-28T07:49:06.841Z,68.40
2018-08-28T07:51:36.445Z,69.20
2018-08-28T07:54:06.038Z,68.60
2018-08-28T07:56:35.874Z,66.80
2018-08-28T07:59:06.019Z,65.30
2018-08-28T08:01:35.603Z,65.80
2018-08-28T08:04:04.869Z,66.60
2018-08-28T08:06:34.150Z,67.10
2018-08-28T08:09:03.324Z,66.80
2018-08-28T08:11:32.577Z,67.20
2018-08-28T08:14:07.413Z,64.20
2018-08-28T08:16:37.395Z,62.80
2018-08-28T08:19:07.254Z,62.70
2018-08-28T08:21:38.004Z,62.50
2018-08-28T08:24:07.872Z,62.10
2018-08-28T08:26:37.356Z,62.50
2018-08-28T08:29:08.049Z,62.60
2018-08-28T08:31:42.206Z,62.40
2018-08-28T08:34:11.641Z,62.00
2018-08-28T08:36:41.457Z,61.90
2018-08-28T08:39:15.873Z,59.20
2018-08-28T08:41:53.788Z,60.60
2018-08-28T08:44:23.181Z,60.60
2018-08-28T08:46:59.132Z,60.80
2018-08-28T08:49:28.738Z,60.60
2018-08-28T08:51:58.959Z,60.40
2018-08-28T08:54:32.830Z,60.60
2018-08-28T08:57:01.906Z,57.80
2018-08-28T08:59:31.341Z,59.70
2018-08-28T09:02:01.385Z,59.50
2018-08-28T09:04:30.860Z,59.40
2018-08-28T09:07:01.314Z,61.10
2018-08-28T09:09:32.436Z,59.90
2018-08-28T09:12:02.668Z,60.00
2018-08-28T09:14:33.209Z,60.80
2018-08-28T09:17:03.532Z,59.30
2018-08-28T09:19:33.906Z,59.50
2018-08-28T09:22:12.175Z,59.30
2018-08-28T09:24:42.779Z,59.00
2018-08-28T09:27:12.161Z,58.80
2018-08-28T09:29:41.514Z,58.60
2018-08-28T09:32:12.125Z,58.70
2018-08-28T09:34:41.481Z,58.60
2018-08-28T09:37:10.822Z,58.50
2018-08-28T09:39:40.111Z,56.90
2018-08-28T09:42:09.991Z,57.20
2018-08-28T09:44:39.560Z,54.60
2018-08-28T09:47:10.016Z,53.70
2018-08-28T09:49:39.354Z,53.50
2018-08-28T09:52:08.759Z,55.60
2018-08-28T09:54:38.277Z,56.00
2018-08-28T09:57:07.502Z,55.80
2018-08-28T09:59:36.957Z,55.30
2018-08-28T10:02:06.685Z,55.10
2018-08-28T10:04:36.476Z,53.30
2018-08-28T10:07:06.197Z,51.60
2018-08-28T10:09:37.424Z,52.30
2018-08-28T10:12:07.137Z,53.00
2018-08-28T10:14:37.773Z,52.40
2018-08-28T10:17:07.113Z,53.20
2018-08-28T10:19:39.895Z,52.90
2018-08-28T10:22:09.403Z,53.10
2018-08-28T10:24:38.953Z,53.00
2018-08-28T10:27:08.448Z,52.70
2018-08-28T10:29:37.903Z,53.80
2018-08-28T10:32:07.248Z,52.60
2018-08-28T10:34:36.781Z,52.50
2018-08-28T10:37:06.479Z,53.20
2018-08-28T10:39:35.978Z,52.60
2018-08-28T10:42:06.713Z,51.10
2018-08-28T10:44:42.194Z,50.70
2018-08-28T10:47:14.439Z,50.70
2018-08-28T10:49:44.776Z,50.30
2018-08-28T10:52:13.829Z,49.70
2018-08-28T10:54:43.642Z,50.80
2018-08-28T10:57:13.109Z,51.00
2018-08-28T10:59:47.323Z,51.20
2018-08-28T11:02:17.355Z,50.90
2018-08-28T11:04:47.205Z,50.20
2018-08-28T11:07:17.295Z,48.80
2018-08-28T11:09:47.736Z,48.80
2018-08-28T11:12:19.019Z,49.10
2018-08-28T11:14:49.394Z,50.20
2018-08-28T11:17:21.394Z,49.20
2018-08-28T11:19:50.920Z,50.70
2018-08-28T11:22:20.469Z,51.30
2018-08-28T11:24:50.901Z,51.80
2018-08-28T11:27:20.327Z,51.10
2018-08-28T11:29:50.221Z,51.30
2018-08-28T11:32:19.648Z,51.00
2018-08-28T11:34:49.062Z,50.50
2018-08-28T11:37:18.691Z,50.60
2018-08-28T11:39:49.447Z,50.70
2018-08-28T11:42:18.569Z,50.90
2018-08-28T11:44:48.636Z,50.80
2018-08-28T11:47:20.345Z,50.30
2018-08-28T11:50:06.088Z,50.60
2018-08-28T11:52:48.589Z,49.90
2018-08-28T11:55:18.651Z,50.20
2018-08-28T11:57:49.218Z,49.70
2018-08-28T12:00:22.095Z,50.00
2018-08-28T12:02:51.561Z,50.30
2018-08-28T12:05:24.825Z,50.20
2018-08-28T12:08:03.766Z,49.30
2018-08-28T12:10:33.535Z,49.90
2018-08-28T12:13:03.047Z,49.70
2018-08-28T12:15:43.355Z,49.50
2018-08-28T12:18:21.410Z,48.00
2018-08-28T12:20:51.238Z,47.50
2018-08-28T12:23:21.321Z,48.50
2018-08-28T12:25:51.302Z,48.50
2018-08-28T12:28:24.514Z,49.00
2018-08-28T12:30:54.607Z,45.60
2018-08-28T12:33:23.963Z,45.30
2018-08-28T12:35:53.530Z,44.80
2018-08-28T12:38:22.785Z,46.20
2018-08-28T12:40:53.423Z,44.80
2018-08-28T12:43:22.821Z,45.90
2018-08-28T12:45:52.425Z,45.80
2018-08-28T12:48:21.877Z,45.10
2018-08-28T12:50:52.298Z,45.10
2018-08-28T12:56:17.377Z,46.60
2018-08-28T12:58:55.284Z,46.60
2018-08-28T13:01:25.010Z,46.50
2018-08-28T13:04:05.964Z,45.30
2018-08-28T13:06:39.113Z,44.30
2018-08-28T13:09:09.195Z,45.00
2018-08-28T13:11:40.538Z,43.40
2018-08-28T13:14:10.472Z,42.70
2018-08-28T13:16:42.437Z,41.90
2018-08-28T13:19:12.778Z,41.70
2018-08-28T13:21:49.536Z,41.10
2018-08-28T13:24:20.554Z,42.10
2018-08-28T13:26:56.145Z,41.40
2018-08-28T13:29:27.681Z,41.60
2018-08-28T13:31:58.209Z,42.20
2018-08-28T13:34:27.710Z,42.60
2018-08-28T13:36:58.308Z,43.90
2018-08-28T13:39:27.910Z,43.80
2018-08-28T13:41:57.472Z,44.00
2018-08-28T13:50:18.761Z,42.70
2018-08-28T13:52:49.048Z,42.00
2018-08-28T13:55:19.925Z,41.70
2018-08-28T13:57:51.718Z,41.70
2018-08-28T14:00:21.992Z,42.50
2018-08-28T14:02:54.967Z,42.50
2018-08-28T14:05:32.095Z,42.50
2018-08-28T14:08:09.893Z,42.10
2018-08-28T14:10:56.035Z,42.00
2018-08-28T14:13:25.974Z,41.60
2018-08-28T14:15:55.871Z,40.90
2018-08-28T14:18:26.527Z,41.20
2018-08-28T14:20:56.168Z,41.00
2018-08-28T14:23:25.756Z,41.00
2018-08-28T14:25:55.331Z,41.70
2018-08-28T14:28:25.092Z,42.60
2018-08-28T14:31:00.045Z,42.30
2018-08-28T14:33:35.142Z,42.00
2018-08-28T14:36:05.532Z,42.00
2018-08-28T14:38:35.706Z,41.00
2018-08-28T14:41:08.107Z,40.60
2018-08-28T14:43:37.522Z,38.90
2018-08-28T14:46:10.039Z,38.70
2018-08-28T14:48:48.175Z,38.00
2018-08-28T14:51:29.730Z,38.20
2018-08-28T14:53:59.862Z,38.10
2018-08-28T14:56:29.535Z,37.60
2018-08-28T14:58:59.745Z,37.60
2018-08-28T15:01:30.947Z,37.40
2018-08-28T15:04:00.902Z,37.50
2018-08-28T15:06:31.618Z,37.50
2018-08-28T15:09:02.545Z,37.20
2018-08-28T15:11:31.836Z,37.30
2018-08-28T15:14:01.471Z,36.20
2018-08-28T15:16:31.415Z,37.70
2018-08-28T15:19:08.940Z,37.00
2018-08-28T15:21:39.711Z,37.20
2018-08-28T15:24:09.628Z,37.90
2018-08-28T15:26:38.881Z,38.40
2018-08-28T15:29:09.385Z,38.10
2018-08-28T15:31:38.953Z,37.50
2018-08-28T15:34:09.702Z,37.00
2018-08-28T15:36:39.199Z,37.00
2018-08-28T15:39:08.616Z,36.40
2018-08-28T15:41:38.831Z,35.30
2018-08-28T15:44:08.191Z,35.20
2018-08-28T15:46:41.914Z,35.00
2018-08-28T15:49:20.992Z,35.10
2018-08-28T15:51:59.709Z,34.60
2018-08-28T15:54:30.189Z,34.00
2018-08-28T15:57:00.416Z,33.80
2018-08-28T15:59:29.823Z,33.30
2018-08-28T16:01:59.144Z,33.50
2018-08-28T16:04:28.532Z,31.90
2018-08-28T16:06:57.819Z,31.90
2018-08-28T16:09:29.019Z,30.80
2018-08-28T16:11:58.800Z,30.70
2018-08-28T16:14:28.306Z,29.90
2018-08-28T16:16:57.900Z,31.00
2018-08-28T16:19:26.993Z,29.90
2018-08-28T16:21:59.562Z,29.30
2018-08-28T16:24:29.226Z,29.80
2018-08-28T16:26:58.761Z,29.70
2018-08-28T16:29:28.114Z,29.40
2018-08-28T16:31:57.637Z,30.10
2018-08-28T16:34:30.453Z,30.50
2018-08-28T16:37:01.868Z,30.40
2018-08-28T16:39:31.073Z,30.60
2018-08-28T16:42:00.665Z,30.50
2018-08-28T16:44:33.424Z,30.40
2018-08-28T16:47:03.164Z,30.20
2018-08-28T16:49:37.425Z,30.30
2018-08-28T16:52:07.481Z,30.00
2018-08-28T16:54:38.846Z,30.00
2018-08-28T16:57:08.526Z,29.80
2018-08-28T16:59:38.785Z,30.70
2018-08-28T17:02:08.759Z,30.60
2018-08-28T17:04:42.848Z,30.00
2018-08-28T17:07:12.242Z,29.20
2018-08-28T17:09:41.891Z,29.80
2018-08-28T17:12:11.444Z,29.30
2018-08-28T17:14:42.381Z,29.60
2018-08-28T17:17:14.222Z,29.60
2018-08-28T17:19:44.689Z,29.50
2018-08-28T17:22:14.427Z,30.30
2018-08-28T17:24:45.947Z,30.00
2018-08-28T17:27:15.508Z,29.80
2018-08-28T17:29:44.692Z,30.00
2018-08-28T17:32:22.879Z,30.50
2018-08-28T17:34:53.228Z,30.90
2018-08-28T17:37:26.642Z,31.00
2018-08-28T17:39:56.534Z,31.40
2018-08-28T17:42:31.088Z,31.60
2018-08-28T17:45:01.260Z,31.70
2018-08-28T17:47:36.652Z,32.20
2018-08-28T17:50:06.442Z,32.10
2018-08-28T17:52:35.904Z,32.60
2018-08-28T17:55:05.426Z,33.20
2018-08-28T17:57:35.024Z,34.00
2018-08-28T18:00:06.064Z,34.50
2018-08-28T18:02:36.191Z,35.10
2018-08-28T18:05:05.617Z,35.40
2018-08-28T18:07:40.135Z,36.50
2018-08-28T18:10:09.568Z,37.10
2018-08-28T18:12:39.179Z,37.40
2018-08-28T18:15:21.316Z,37.80
2018-08-28T18:17:51.714Z,38.00
2018-08-28T18:20:21.505Z,38.00
2018-08-28T18:22:52.066Z,38.20
2018-08-28T18:25:22.532Z,38.20
2018-08-28T18:27:51.858Z,38.30
2018-08-28T18:30:21.257Z,38.30
2018-08-28T18:32:50.916Z,38.30
2018-08-28T18:35:20.370Z,38.50
2018-08-28T18:37:50.303Z,38.10
2018-08-28T18:40:20.130Z,38.50
2018-08-28T18:42:50.485Z,38.70
2018-08-28T18:45:21.360Z,38.60
2018-08-28T18:47:50.847Z,38.70
2018-08-28T18:50:20.315Z,39.10
2018-08-28T18:52:49.845Z,39.00
2018-08-28T18:55:19.301Z,39.40
2018-08-28T18:57:49.353Z,39.70
2018-08-28T19:00:21.137Z,40.00
2018-08-28T19:02:50.746Z,40.30
2018-08-28T19:05:20.306Z,40.30
2018-08-28T19:07:50.315Z,40.40
2018-08-28T19:10:24.756Z,40.70
2018-08-28T19:12:54.028Z,40.60
2018-08-28T19:15:23.478Z,40.80
2018-08-28T19:17:53.160Z,40.80
2018-08-28T19:20:24.568Z,40.70
2018-08-28T19:23:01.633Z,40.80
2018-08-28T19:25:34.271Z,40.50
2018-08-28T19:28:12.628Z,40.70
2018-08-28T19:30:42.183Z,41.00
2018-08-28T19:33:12.479Z,40.80
2018-08-28T19:35:41.767Z,40.80
2018-08-28T19:38:12.112Z,40.60
2018-08-28T19:40:42.076Z,40.80
2018-08-28T19:43:14.788Z,41.00
2018-08-28T19:45:44.567Z,40.80
2018-08-28T19:48:14.621Z,41.00
2018-08-28T19:50:44.015Z,41.00
2018-08-28T19:53:13.609Z,40.80
2018-08-28T19:55:43.013Z,40.80
2018-08-28T19:58:12.574Z,41.20
2018-08-28T20:00:42.178Z,41.00
2018-08-28T20:03:11.999Z,41.20
2018-08-28T20:05:41.461Z,41.20
2018-08-28T20:10:49.142Z,41.30
2018-08-28T20:13:20.618Z,41.40
2018-08-28T20:15:50.120Z,41.40
2018-08-28T20:18:36.227Z,41.30
2018-08-28T20:21:06.600Z,41.40
2018-08-28T20:23:48.948Z,41.50
2018-08-28T20:32:24.405Z,41.60
2018-08-28T20:35:07.107Z,41.70
2018-08-28T20:37:36.473Z,41.90
2018-08-28T20:40:05.800Z,42.00
2018-08-28T20:42:35.106Z,42.10
2018-08-28T20:45:05.078Z,42.10
2018-08-28T20:47:34.335Z,42.20
2018-08-28T20:50:03.740Z,42.30
2018-08-28T20:52:33.261Z,42.30
2018-08-28T20:55:05.526Z,42.40
2018-08-28T20:57:34.722Z,42.50
2018-08-28T21:00:04.505Z,42.60
2018-08-28T21:02:36.473Z,42.70
2018-08-28T21:05:06.251Z,43.90
2018-08-28T21:07:35.518Z,43.10
2018-08-28T21:10:05.735Z,43.30
2018-08-28T21:12:36.091Z,43.30
2018-08-28T21:15:05.342Z,43.40
2018-08-28T21:17:36.915Z,43.40
2018-08-28T21:20:08.040Z,43.60
2018-08-28T21:23:07.695Z,43.70
2018-08-28T21:25:36.775Z,43.90
2018-08-28T21:28:07.803Z,43.90
2018-08-28T21:30:36.894Z,43.70
2018-08-28T21:33:06.164Z,44.10
2018-08-28T21:35:35.916Z,44.10
2018-08-28T21:38:05.013Z,44.10
2018-08-28T21:40:34.051Z,44.10
2018-08-28T21:43:04.345Z,44.20
2018-08-28T21:45:36.278Z,44.20
2018-08-28T21:48:05.510Z,44.30
2018-08-28T21:50:40.473Z,44.40
2018-08-28T21:53:09.698Z,44.50
2018-08-28T21:55:40.554Z,44.50
2018-08-28T21:58:11.748Z,44.60
2018-08-28T22:00:41.356Z,44.70
2018-08-28T22:03:10.916Z,44.70
2018-08-28T22:05:39.906Z,44.70
2018-08-28T22:08:09.333Z,44.70
2018-08-28T22:10:39.689Z,44.80
2018-08-28T22:13:09.061Z,45.00
2018-08-28T22:15:38.540Z,45.00
2018-08-28T22:18:07.617Z,45.00
2018-08-28T22:20:36.583Z,45.10
2018-08-28T22:23:06.357Z,45.10
2018-08-28T22:25:36.119Z,45.10
2018-08-28T22:28:11.504Z,45.20
2018-08-28T22:30:41.984Z,45.20
2018-08-28T22:33:11.045Z,45.90
2018-08-28T22:35:41.425Z,45.40
2018-08-28T22:40:48.033Z,45.40
2018-08-28T22:43:28.804Z,45.50
2018-08-28T22:46:04.838Z,45.50
2018-08-28T22:48:34.917Z,45.60
2018-08-28T22:51:03.916Z,45.70
2018-08-28T22:57:55.265Z,45.90
2018-08-28T23:00:25.830Z,46.00
2018-08-28T23:02:56.994Z,46.10
2018-08-28T23:05:27.029Z,46.20
2018-08-28T23:08:03.075Z,46.30
2018-08-28T23:10:33.324Z,46.30
2018-08-28T23:13:03.971Z,46.30
2018-08-28T23:15:40.101Z,46.20
2018-08-28T23:18:10.023Z,46.20
2018-08-28T23:20:40.596Z,46.20
2018-08-28T23:23:10.246Z,46.20
2018-08-28T23:25:40.623Z,46.20
2018-08-28T23:28:09.646Z,46.20
2018-08-28T23:30:39.037Z,46.20
2018-08-28T23:33:08.302Z,46.80
2018-08-28T23:35:37.321Z,46.20
2018-08-28T23:38:06.772Z,46.20
2018-08-28T23:40:37.260Z,46.20
2018-08-28T23:43:07.305Z,46.30
2018-08-28T23:45:36.410Z,46.30
2018-08-28T23:48:06.844Z,46.40
2018-08-28T23:50:36.672Z,46.70
2018-08-28T23:53:06.446Z,46.90
2018-08-28T23:55:35.612Z,47.20
2018-08-28T23:58:07.716Z,47.40
